createdAt,value
2022-11-23T00:01:35.556Z,100279.00
2022-11-23T00:04:12.284Z,100279.41
2022-11-23T00:06:40.401Z,100286.44
2022-11-23T00:09:08.170Z,100278.44
2022-11-23T00:11:36.324Z,100287.06
2022-11-23T00:14:03.874Z,100288.94
2022-11-23T00:16:31.473Z,100297.25
2022-11-23T00:19:02.961Z,100292.44
2022-11-23T00:21:34.105Z,100291.03
2022-11-23T00:24:01.621Z,100296.88
2022-11-23T00:26:28.945Z,100299.09
2022-11-23T00:29:00.697Z,100296.72
2022-11-23T00:31:27.947Z,100294.59
2022-11-23T00:33:59.997Z,100295.22
2022-11-23T00:36:28.037Z,100298.53
2022-11-23T00:38:55.634Z,100293.06
2022-11-23T00:41:25.834Z,100285.09
2022-11-23T00:43:53.219Z,100287.22
2022-11-23T00:46:31.903Z,100288.56
2022-11-23T00:49:01.796Z,100290.00
2022-11-23T00:51:34.548Z,100291.72
2022-11-23T00:54:03.101Z,100291.72
2022-11-23T00:56:31.065Z,100287.44
2022-11-23T00:59:08.778Z,100292.63
2022-11-23T01:01:39.636Z,100286.63
2022-11-23T01:04:08.133Z,100282.72
2022-11-23T01:06:40.210Z,100277.38
2022-11-23T01:09:25.122Z,100274.34
2022-11-23T01:11:53.416Z,100275.84
2022-11-23T01:14:21.720Z,100275.63
2022-11-23T01:16:49.491Z,100284.81
2022-11-23T01:19:20.270Z,100285.75
2022-11-23T01:21:52.642Z,100279.66
2022-11-23T01:24:22.396Z,100290.59
2022-11-23T01:26:56.538Z,100279.09
2022-11-23T01:29:24.490Z,100282.44
2022-11-23T01:31:51.553Z,100280.94
2022-11-23T01:34:18.834Z,100281.69
2022-11-23T01:36:48.865Z,100277.75
2022-11-23T01:39:15.902Z,100285.88
2022-11-23T01:41:45.441Z,100280.53
2022-11-23T01:44:35.428Z,100285.88
2022-11-23T01:47:10.725Z,100288.13
2022-11-23T01:49:38.843Z,100288.78
2022-11-23T01:52:16.200Z,100288.88
2022-11-23T01:54:53.664Z,100281.19
2022-11-23T01:57:33.099Z,100287.31
2022-11-23T02:00:00.632Z,100280.94
2022-11-23T02:02:31.904Z,100280.66
2022-11-23T02:05:01.340Z,100292.31
2022-11-23T02:07:31.485Z,100295.53
2022-11-23T02:09:58.910Z,100288.00
2022-11-23T02:12:25.960Z,100275.03
2022-11-23T02:14:53.045Z,100275.72
2022-11-23T02:17:20.116Z,100280.41
2022-11-23T02:20:06.327Z,100278.16
2022-11-23T02:22:52.276Z,100286.41
2022-11-23T02:25:40.881Z,100278.56
2022-11-23T02:28:07.924Z,100273.78
2022-11-23T02:30:36.758Z,100277.00
2022-11-23T02:33:07.481Z,100283.03
2022-11-23T02:35:35.123Z,100278.41
2022-11-23T02:38:08.084Z,100284.69
2022-11-23T02:40:39.173Z,100279.28
2022-11-23T02:45:57.614Z,100289.00
2022-11-23T02:48:25.048Z,100293.06
2022-11-23T02:50:52.660Z,100294.91
2022-11-23T02:53:20.119Z,100287.22
2022-11-23T02:55:49.779Z,100298.06
2022-11-23T02:58:16.765Z,100299.94
2022-11-23T03:00:48.361Z,100299.03
2022-11-23T03:03:40.440Z,100297.94
2022-11-23T03:06:07.463Z,100303.06
2022-11-23T03:08:34.448Z,100296.72
2022-11-23T03:11:02.445Z,100306.72
2022-11-23T03:13:29.529Z,100308.09
2022-11-23T03:15:57.083Z,100303.75
2022-11-23T03:18:24.066Z,100301.22
2022-11-23T03:20:51.076Z,100295.81
2022-11-23T03:23:18.658Z,100300.97
2022-11-23T03:25:45.725Z,100291.25
2022-11-23T03:28:15.170Z,100285.91
2022-11-23T03:30:43.867Z,100291.78
2022-11-23T03:33:10.846Z,100292.03
2022-11-23T03:35:38.753Z,100290.38
2022-11-23T03:38:05.878Z,100297.69
2022-11-23T03:40:32.876Z,100293.09
2022-11-23T03:43:01.431Z,100297.63
2022-11-23T03:45:28.476Z,100295.75
2022-11-23T03:47:55.621Z,100293.97
2022-11-23T03:50:24.707Z,100293.28
2022-11-23T03:52:52.004Z,100288.13
2022-11-23T03:55:18.959Z,100283.78
2022-11-23T03:57:49.120Z,100280.94
2022-11-23T04:00:16.956Z,100278.78
2022-11-23T04:02:44.204Z,100288.28
2022-11-23T04:05:11.226Z,100294.66
2022-11-23T04:07:38.341Z,100283.09
2022-11-23T04:10:06.044Z,100282.88
2022-11-23T04:12:35.199Z,100287.53
2022-11-23T04:15:02.185Z,100284.84
2022-11-23T04:17:29.563Z,100294.41
2022-11-23T04:19:56.615Z,100290.59
2022-11-23T04:22:23.631Z,100289.00
2022-11-23T04:24:50.575Z,100285.00
2022-11-23T04:27:17.621Z,100280.41
2022-11-23T04:29:44.599Z,100282.47
2022-11-23T04:32:13.818Z,100283.72
2022-11-23T04:34:43.138Z,100282.53
2022-11-23T04:37:13.289Z,100282.66
2022-11-23T04:39:40.599Z,100278.81
2022-11-23T04:42:10.073Z,100282.81
2022-11-23T04:44:37.075Z,100279.44
2022-11-23T04:47:06.667Z,100279.09
2022-11-23T04:49:33.863Z,100288.31
2022-11-23T04:52:01.078Z,100282.81
2022-11-23T04:54:28.031Z,100278.63
2022-11-23T04:56:57.518Z,100284.22
2022-11-23T04:59:27.621Z,100286.19
2022-11-23T05:01:57.167Z,100290.59
2022-11-23T05:04:24.233Z,100288.94
2022-11-23T05:06:51.473Z,100285.78
2022-11-23T05:09:20.899Z,100294.19
2022-11-23T05:11:48.414Z,100290.19
2022-11-23T05:14:15.651Z,100293.34
2022-11-23T05:16:42.778Z,100298.25
2022-11-23T05:19:13.620Z,100290.75
2022-11-23T05:21:40.788Z,100288.09
2022-11-23T05:24:07.929Z,100281.31
2022-11-23T05:26:34.917Z,100293.44
2022-11-23T05:29:01.921Z,100297.63
2022-11-23T05:31:28.867Z,100298.81
2022-11-23T05:33:55.884Z,100291.63
2022-11-23T05:36:22.968Z,100290.31
2022-11-23T05:38:50.049Z,100294.06
2022-11-23T05:41:19.103Z,100299.47
2022-11-23T05:43:49.085Z,100299.28
2022-11-23T05:46:16.341Z,100303.59
2022-11-23T05:48:43.332Z,100305.94
2022-11-23T05:51:10.403Z,100315.97
2022-11-23T05:53:37.370Z,100314.94
2022-11-23T05:56:04.520Z,100314.84
2022-11-23T05:58:33.789Z,100312.97
2022-11-23T06:01:01.793Z,100320.56
2022-11-23T06:03:29.014Z,100322.91
2022-11-23T06:05:56.197Z,100314.22
2022-11-23T06:08:23.162Z,100311.38
2022-11-23T06:10:50.151Z,100318.69
2022-11-23T06:13:17.121Z,100313.38
2022-11-23T06:15:44.069Z,100310.41
2022-11-23T06:18:11.115Z,100308.13
2022-11-23T06:20:38.245Z,100312.34
2022-11-23T06:23:05.214Z,100313.38
2022-11-23T06:25:32.224Z,100318.56
2022-11-23T06:28:01.594Z,100317.88
2022-11-23T06:30:32.490Z,100315.63
2022-11-23T06:33:04.684Z,100323.72
2022-11-23T06:35:34.176Z,100329.22
2022-11-23T06:38:01.267Z,100326.97
2022-11-23T06:40:28.991Z,100318.75
2022-11-23T06:43:02.173Z,100324.63
2022-11-23T06:45:29.315Z,100333.94
2022-11-23T06:47:56.909Z,100325.66
2022-11-23T06:50:26.418Z,100326.53
2022-11-23T06:52:57.767Z,100340.75
2022-11-23T06:55:27.431Z,100346.50
2022-11-23T06:57:56.305Z,100337.09
2022-11-23T07:00:23.351Z,100338.97
2022-11-23T07:02:55.188Z,100337.44
2022-11-23T07:05:23.623Z,100338.66
2022-11-23T07:07:53.808Z,100336.34
2022-11-23T07:10:20.847Z,100337.03
2022-11-23T07:12:50.856Z,100340.81
2022-11-23T07:15:17.883Z,100332.22
2022-11-23T07:17:44.911Z,100338.28
2022-11-23T07:20:14.999Z,100331.81
2022-11-23T07:22:42.031Z,100334.75
2022-11-23T07:25:09.774Z,100335.50
2022-11-23T07:27:39.238Z,100327.75
2022-11-23T07:30:07.224Z,100332.09
2022-11-23T07:32:34.227Z,100343.50
2022-11-23T07:35:01.175Z,100349.78
2022-11-23T07:37:28.198Z,100345.91
2022-11-23T07:39:58.273Z,100354.72
2022-11-23T07:42:34.468Z,100368.78
2022-11-23T07:45:04.610Z,100355.97
2022-11-23T07:47:32.100Z,100356.81
2022-11-23T07:49:59.204Z,100376.78
2022-11-23T07:52:26.335Z,100377.00
2022-11-23T07:54:53.267Z,100373.69
2022-11-23T07:57:20.202Z,100382.59
2022-11-23T07:59:47.204Z,100383.22
2022-11-23T08:02:15.818Z,100383.59
2022-11-23T08:04:43.282Z,100380.63
2022-11-23T08:07:10.723Z,100382.22
2022-11-23T08:09:37.825Z,100395.63
2022-11-23T08:12:08.123Z,100393.81
2022-11-23T08:14:35.597Z,100388.91
2022-11-23T08:17:02.843Z,100389.78
2022-11-23T08:19:29.813Z,100391.28
2022-11-23T08:21:56.753Z,100404.53
2022-11-23T08:24:23.721Z,100400.72
2022-11-23T08:26:50.686Z,100403.50
2022-11-23T08:29:20.672Z,100401.28
2022-11-23T08:31:48.024Z,100390.13
2022-11-23T08:34:15.043Z,100406.41
2022-11-23T08:36:44.462Z,100408.72
2022-11-23T08:39:12.537Z,100411.13
2022-11-23T08:41:39.534Z,100422.00
2022-11-23T08:44:09.807Z,100407.72
2022-11-23T08:46:40.129Z,100400.81
2022-11-23T08:49:07.686Z,100395.59
2022-11-23T08:51:34.822Z,100399.25
2022-11-23T08:54:02.003Z,100392.69
2022-11-23T08:56:29.148Z,100395.13
2022-11-23T08:58:56.112Z,100391.66
2022-11-23T09:01:23.354Z,100399.59
2022-11-23T09:03:50.533Z,100400.06
2022-11-23T09:06:20.480Z,100389.88
2022-11-23T09:08:47.483Z,100395.63
2022-11-23T09:11:18.136Z,100394.09
2022-11-23T09:13:45.212Z,100398.91
2022-11-23T09:16:12.180Z,100394.09
2022-11-23T09:18:41.175Z,100391.19
2022-11-23T09:21:10.523Z,100387.78
2022-11-23T09:23:39.536Z,100381.28
2022-11-23T09:26:10.522Z,100392.25
2022-11-23T09:28:43.095Z,100382.63
2022-11-23T09:31:13.819Z,100386.09
2022-11-23T09:33:40.766Z,100387.16
2022-11-23T09:36:08.237Z,100405.78
2022-11-23T09:41:55.237Z,100387.56
2022-11-23T09:44:40.853Z,100393.56
2022-11-23T09:47:46.927Z,100383.50
2022-11-23T09:51:02.882Z,100383.66
2022-11-23T09:54:12.380Z,100384.38
2022-11-23T09:56:46.282Z,100385.44
2022-11-23T09:59:33.799Z,100388.25
2022-11-23T10:02:01.584Z,100387.50
2022-11-23T10:04:35.597Z,100388.06
2022-11-23T10:07:39.767Z,100384.31
2022-11-23T10:10:37.954Z,100388.13
2022-11-23T10:13:23.311Z,100384.72
2022-11-23T10:16:17.820Z,100385.19
2022-11-23T10:19:15.081Z,100381.84
2022-11-23T10:22:08.998Z,100378.13
2022-11-23T10:24:45.961Z,100383.44
2022-11-23T10:27:17.868Z,100381.13
2022-11-23T10:29:45.624Z,100383.97
2022-11-23T10:32:35.489Z,100387.66
2022-11-23T10:35:16.721Z,100376.28
2022-11-23T10:37:43.955Z,100378.06
2022-11-23T10:40:25.956Z,100373.28
2022-11-23T10:43:01.774Z,100373.50
2022-11-23T10:45:31.877Z,100375.38
2022-11-23T10:48:00.506Z,100366.97
2022-11-23T10:50:37.558Z,100364.44
2022-11-23T10:53:26.365Z,100359.50
2022-11-23T10:55:59.370Z,100361.25
2022-11-23T10:58:30.158Z,100367.06
2022-11-23T11:01:14.474Z,100355.84
2022-11-23T11:03:41.992Z,100356.97
2022-11-23T11:06:10.967Z,100355.56
2022-11-23T11:08:54.188Z,100352.94
2022-11-23T11:11:33.711Z,100350.84
2022-11-23T11:14:19.729Z,100350.94
2022-11-23T11:16:55.987Z,100350.31
2022-11-23T11:19:30.243Z,100347.41
2022-11-23T11:22:00.202Z,100346.59
2022-11-23T11:24:43.613Z,100346.03
2022-11-23T11:27:22.355Z,100345.28
2022-11-23T11:29:54.711Z,100340.16
2022-11-23T11:32:34.386Z,100342.69
2022-11-23T11:35:27.209Z,100336.19
2022-11-23T11:38:11.590Z,100343.38
2022-11-23T11:40:48.182Z,100328.50
2022-11-23T11:43:29.422Z,100336.81
2022-11-23T11:46:28.707Z,100346.19
2022-11-23T11:49:21.511Z,100343.72
2022-11-23T11:52:02.323Z,100343.28
2022-11-23T11:54:32.070Z,100341.19
2022-11-23T11:57:27.184Z,100338.94
2022-11-23T11:59:58.247Z,100342.78
2022-11-23T12:02:40.026Z,100335.75
2022-11-23T12:05:27.004Z,100334.78
2022-11-23T12:08:10.055Z,100326.31
2022-11-23T12:10:39.080Z,100336.69
2022-11-23T12:13:14.069Z,100334.03
2022-11-23T12:15:54.267Z,100328.03
2022-11-23T12:18:36.123Z,100333.72
2022-11-23T12:21:28.211Z,100326.84
2022-11-23T12:24:22.424Z,100322.53
2022-11-23T12:27:01.743Z,100326.56
2022-11-23T12:29:40.580Z,100332.50
2022-11-23T12:32:28.814Z,100332.59
2022-11-23T12:35:28.828Z,100333.41
2022-11-23T12:38:20.823Z,100330.44
2022-11-23T12:41:23.060Z,100316.81
2022-11-23T12:44:07.955Z,100315.75
2022-11-23T12:46:40.712Z,100325.19
2022-11-23T12:50:16.571Z,100319.25
2022-11-23T12:53:29.988Z,100332.97
2022-11-23T12:56:23.279Z,100325.41
2022-11-23T12:58:53.400Z,100328.28
2022-11-23T13:01:35.283Z,100346.97
2022-11-23T13:04:28.421Z,100335.91
2022-11-23T13:07:35.994Z,100332.38
2022-11-23T13:10:26.628Z,100339.91
2022-11-23T13:13:07.807Z,100336.25
2022-11-23T13:16:17.658Z,100337.00
2022-11-23T13:19:29.479Z,100333.00
2022-11-23T13:21:59.089Z,100340.72
2022-11-23T13:24:38.724Z,100337.75
2022-11-23T13:27:14.786Z,100339.97
2022-11-23T13:29:50.851Z,100345.97
2022-11-23T13:32:39.603Z,100348.16
2022-11-23T13:35:21.707Z,100342.94
2022-11-23T13:37:57.707Z,100347.28
2022-11-23T13:40:29.476Z,100351.53
2022-11-23T13:43:17.163Z,100353.41
2022-11-23T13:46:16.174Z,100354.63
2022-11-23T13:48:56.767Z,100359.13
2022-11-23T13:51:35.584Z,100360.50
2022-11-23T13:54:20.876Z,100356.22
2022-11-23T13:57:01.572Z,100363.63
2022-11-23T13:59:34.762Z,100355.47
2022-11-23T14:02:07.864Z,100363.25
2022-11-23T14:04:43.961Z,100367.97
2022-11-23T14:07:43.200Z,100373.16
2022-11-23T14:10:24.648Z,100363.13
2022-11-23T14:13:16.720Z,100366.78
2022-11-23T14:15:55.257Z,100367.91
2022-11-23T14:18:43.230Z,100372.28
2022-11-23T14:21:48.190Z,100375.91
2022-11-23T14:24:20.749Z,100374.34
2022-11-23T14:27:46.300Z,100377.25
2022-11-23T14:30:49.417Z,100383.75
2022-11-23T14:34:00.673Z,100388.34
2022-11-23T14:37:18.679Z,100389.41
2022-11-23T14:40:03.173Z,100383.34
2022-11-23T14:42:31.347Z,100385.94
2022-11-23T14:45:06.766Z,100385.09
2022-11-23T14:47:33.898Z,100393.09
2022-11-23T14:50:00.918Z,100392.72
2022-11-23T14:52:36.875Z,100390.41
2022-11-23T14:55:06.317Z,100394.06
2022-11-23T14:57:45.398Z,100395.03
2022-11-23T15:00:48.019Z,100397.50
2022-11-23T15:06:17.292Z,100402.81
2022-11-23T15:09:17.550Z,100406.56
2022-11-23T15:11:44.563Z,100405.72
2022-11-23T15:14:26.705Z,100416.78
2022-11-23T15:16:55.913Z,100412.09
2022-11-23T15:19:30.303Z,100412.59
2022-11-23T15:21:57.791Z,100417.63
2022-11-23T15:24:31.060Z,100418.38
2022-11-23T15:27:12.061Z,100417.69
2022-11-23T15:29:41.990Z,100413.22
2022-11-23T15:32:34.384Z,100415.38
2022-11-23T15:35:10.405Z,100413.50
2022-11-23T15:37:45.727Z,100417.84
2022-11-23T15:40:17.968Z,100415.06
2022-11-23T15:42:47.319Z,100412.81
2022-11-23T15:45:39.436Z,100414.88
2022-11-23T15:48:18.795Z,100415.00
2022-11-23T15:51:00.266Z,100424.50
2022-11-23T15:53:53.725Z,100412.31
2022-11-23T15:56:38.745Z,100415.84
2022-11-23T15:59:33.731Z,100412.06
2022-11-23T16:02:02.990Z,100408.72
2022-11-23T16:04:41.190Z,100406.25
2022-11-23T16:07:27.893Z,100399.50
2022-11-23T16:10:16.017Z,100405.50
2022-11-23T16:12:58.904Z,100394.06
2022-11-23T16:15:46.402Z,100397.22
2022-11-23T16:18:15.313Z,100399.66
2022-11-23T16:20:50.338Z,100402.44
2022-11-23T16:23:27.908Z,100401.59
2022-11-23T16:26:04.996Z,100399.97
2022-11-23T16:28:55.261Z,100400.84
2022-11-23T16:31:40.820Z,100402.84
2022-11-23T16:34:16.520Z,100406.22
2022-11-23T16:36:43.811Z,100406.19
2022-11-23T16:39:11.444Z,100412.38
2022-11-23T16:41:39.165Z,100412.28
2022-11-23T16:44:06.159Z,100408.78
2022-11-23T16:46:33.666Z,100409.03
2022-11-23T16:49:03.325Z,100412.34
2022-11-23T16:51:32.849Z,100413.41
2022-11-23T16:54:18.058Z,100409.69
2022-11-23T16:56:47.098Z,100424.13
2022-11-23T16:59:18.591Z,100420.69
2022-11-23T17:01:56.703Z,100425.25
2022-11-23T17:04:27.010Z,100425.78
2022-11-23T17:06:54.184Z,100416.44
2022-11-23T17:09:21.179Z,100419.72
2022-11-23T17:11:50.983Z,100427.28
2022-11-23T17:14:25.327Z,100429.97
2022-11-23T17:16:55.394Z,100426.38
2022-11-23T17:19:23.233Z,100428.47
2022-11-23T17:21:52.765Z,100429.50
2022-11-23T17:24:21.512Z,100424.94
2022-11-23T17:26:53.176Z,100430.78
2022-11-23T17:29:21.280Z,100430.19
2022-11-23T17:31:50.353Z,100426.53
2022-11-23T17:34:19.989Z,100423.75
2022-11-23T17:36:47.895Z,100416.53
2022-11-23T17:39:21.245Z,100412.59
2022-11-23T17:41:48.750Z,100413.75
2022-11-23T17:44:16.932Z,100413.91
2022-11-23T17:46:45.328Z,100419.03
2022-11-23T17:49:16.272Z,100427.22
2022-11-23T17:51:45.716Z,100427.22
2022-11-23T17:54:12.898Z,100426.31
2022-11-23T17:56:40.093Z,100432.28
2022-11-23T17:59:07.273Z,100435.72
2022-11-23T18:01:34.354Z,100431.66
2022-11-23T18:04:01.495Z,100429.16
2022-11-23T18:06:29.540Z,100426.59
2022-11-23T18:08:57.093Z,100426.88
2022-11-23T18:11:28.584Z,100421.06
2022-11-23T18:13:55.616Z,100426.00
2022-11-23T18:16:23.685Z,100422.56
2022-11-23T18:18:51.149Z,100423.88
2022-11-23T18:21:19.810Z,100420.59
2022-11-23T18:23:49.941Z,100420.69
2022-11-23T18:26:22.818Z,100425.63
2022-11-23T18:28:50.342Z,100420.69
2022-11-23T18:31:17.791Z,100415.84
2022-11-23T18:33:45.943Z,100423.75
2022-11-23T18:36:13.546Z,100424.00
2022-11-23T18:38:41.100Z,100421.44
2022-11-23T18:41:08.124Z,100426.16
2022-11-23T18:43:38.197Z,100415.16
2022-11-23T18:46:08.208Z,100427.94
2022-11-23T18:48:35.237Z,100417.69
2022-11-23T18:51:03.560Z,100425.53
2022-11-23T18:53:32.651Z,100419.13
2022-11-23T18:56:04.326Z,100421.06
2022-11-23T18:58:38.869Z,100418.13
2022-11-23T19:01:19.265Z,100424.50
2022-11-23T19:03:49.535Z,100428.16
2022-11-23T19:06:19.678Z,100425.09
2022-11-23T19:08:57.505Z,100427.91
2022-11-23T19:11:28.728Z,100421.13
2022-11-23T19:13:58.817Z,100419.13
2022-11-23T19:16:31.444Z,100427.66
2022-11-23T19:19:05.072Z,100421.34
2022-11-23T19:21:40.787Z,100419.56
2022-11-23T19:24:09.817Z,100425.47
2022-11-23T19:26:37.422Z,100426.97
2022-11-23T19:29:05.114Z,100426.34
2022-11-23T19:31:33.221Z,100428.19
2022-11-23T19:34:03.761Z,100431.69
2022-11-23T19:36:33.403Z,100422.13
2022-11-23T19:39:00.659Z,100447.97
2022-11-23T19:41:30.700Z,100445.16
2022-11-23T19:44:00.011Z,100444.22
2022-11-23T19:46:31.121Z,100453.94
2022-11-23T19:48:59.191Z,100449.84
2022-11-23T19:51:27.455Z,100460.41
2022-11-23T19:53:57.735Z,100451.44
2022-11-23T19:56:27.716Z,100452.25
2022-11-23T19:59:00.208Z,100447.47
2022-11-23T20:01:34.014Z,100454.06
2022-11-23T20:04:08.694Z,100452.13
2022-11-23T20:06:39.234Z,100453.34
2022-11-23T20:09:10.422Z,100457.31
2022-11-23T20:11:40.466Z,100453.00
2022-11-23T20:14:08.228Z,100464.09
2022-11-23T20:16:35.415Z,100458.75
2022-11-23T20:19:06.467Z,100457.41
2022-11-23T20:21:35.073Z,100454.97
2022-11-23T20:24:06.362Z,100457.59
2022-11-23T20:26:36.520Z,100454.97
2022-11-23T20:29:07.829Z,100456.28
2022-11-23T20:31:35.586Z,100462.47
2022-11-23T20:34:07.040Z,100455.59
2022-11-23T20:36:38.467Z,100458.59
2022-11-23T20:39:10.677Z,100461.88
2022-11-23T20:41:40.181Z,100468.31
2022-11-23T20:44:12.374Z,100464.22
2022-11-23T20:49:27.344Z,100470.44
2022-11-23T20:51:54.302Z,100466.81
2022-11-23T20:54:21.616Z,100461.91
2022-11-23T20:56:48.567Z,100468.13
2022-11-23T20:59:15.881Z,100463.31
2022-11-23T21:01:42.897Z,100470.41
2022-11-23T21:04:10.117Z,100474.66
2022-11-23T21:06:39.883Z,100474.78
2022-11-23T21:09:09.728Z,100477.38
2022-11-23T21:11:55.664Z,100476.91
2022-11-23T21:14:27.899Z,100491.75
2022-11-23T21:17:01.262Z,100487.38
2022-11-23T21:19:37.845Z,100487.47
2022-11-23T21:22:14.213Z,100484.75
2022-11-23T21:24:41.821Z,100497.34
2022-11-23T21:27:12.881Z,100494.59
2022-11-23T21:29:40.431Z,100494.59
2022-11-23T21:32:07.559Z,100493.81
2022-11-23T21:34:35.224Z,100497.81
2022-11-23T21:37:02.585Z,100495.06
2022-11-23T21:39:33.105Z,100493.22
2022-11-23T21:42:00.252Z,100495.13
2022-11-23T21:44:27.336Z,100490.13
2022-11-23T21:46:59.233Z,100499.50
2022-11-23T21:49:28.406Z,100498.88
2022-11-23T21:51:55.530Z,100494.59
2022-11-23T21:54:25.654Z,100498.66
2022-11-23T21:56:55.100Z,100500.28
2022-11-23T21:59:25.770Z,100498.53
2022-11-23T22:01:57.483Z,100506.56
2022-11-23T22:04:24.774Z,100503.13
2022-11-23T22:06:51.872Z,100502.34
2022-11-23T22:09:18.960Z,100501.81
2022-11-23T22:11:48.668Z,100499.72
2022-11-23T22:14:19.398Z,100495.97
2022-11-23T22:16:53.768Z,100511.72
2022-11-23T22:19:20.917Z,100500.31
2022-11-23T22:21:48.300Z,100508.13
2022-11-23T22:24:19.591Z,100510.91
2022-11-23T22:26:47.806Z,100502.06
2022-11-23T22:29:15.811Z,100510.81
2022-11-23T22:31:43.979Z,100507.88
2022-11-23T22:34:13.793Z,100512.09
2022-11-23T22:36:41.261Z,100512.69
2022-11-23T22:39:11.470Z,100508.72
2022-11-23T22:41:39.013Z,100507.59
2022-11-23T22:44:10.959Z,100511.72
2022-11-23T22:46:39.121Z,100521.38
2022-11-23T22:49:08.867Z,100520.63
2022-11-23T22:51:35.943Z,100519.41
2022-11-23T22:54:03.615Z,100531.66
2022-11-23T22:56:33.684Z,100529.44
2022-11-23T22:59:04.388Z,100530.44
2022-11-23T23:01:34.955Z,100527.13
2022-11-23T23:04:03.096Z,100530.13
2022-11-23T23:06:34.996Z,100520.78
2022-11-23T23:09:07.418Z,100528.50
2022-11-23T23:11:36.532Z,100524.38
2022-11-23T23:14:03.763Z,100525.59
2022-11-23T23:16:31.311Z,100532.63
2022-11-23T23:19:03.654Z,100531.53
2022-11-23T23:21:30.850Z,100538.69
2022-11-23T23:24:01.314Z,100534.41
2022-11-23T23:26:29.603Z,100538.94
2022-11-23T23:28:59.917Z,100537.03
2022-11-23T23:31:27.689Z,100539.75
2022-11-23T23:33:57.275Z,100540.84
2022-11-23T23:36:24.959Z,100536.75
2022-11-23T23:38:54.880Z,100545.22
2022-11-23T23:41:22.023Z,100540.31
2022-11-23T23:43:49.362Z,100528.63
2022-11-23T23:46:16.947Z,100529.31
2022-11-23T23:48:44.636Z,100529.88
2022-11-23T23:51:17.946Z,100523.28
2022-11-23T23:53:46.422Z,100533.72
2022-11-23T23:56:26.309Z,100536.50
2022-11-23T23:59:00.343Z,100531.66
